Time;durP1;ratioP1;P1;durP2;ratioP2;P2;SDS_P1;SDS_P2;PMS_P1;PMS_P2;Temp;Humidity;BMP_temperature;BMP_pressure;BME280_temperature;BME280_humidity;BME280_pressure;Samples;Min_cycle;Max_cycle;Signal;HPM_P1;HPM_P2
2022/06/02 00:01:58;;;;;;;8.80;5.77;;;11.30;99.90;;;;;;4161452;28;20264;-78
2022/06/02 00:04:06;;;;;;;7.67;5.40;;;11.30;99.90;;;;;;4168470;28;20234;-78
2022/06/02 00:06:16;;;;;;;7.27;6.33;;;11.20;99.90;;;;;;4176032;28;20205;-78
2022/06/02 00:08:30;;;;;;;9.70;6.70;;;11.20;99.90;;;;;;4153128;28;20257;-78
2022/06/02 00:10:44;;;;;;;7.77;6.57;;;11.20;99.90;;;;;;4172929;28;20199;-79
2022/06/02 00:12:53;;;;;;;10.00;7.23;;;11.10;99.90;;;;;;4165473;28;20219;-78
2022/06/02 00:15:03;;;;;;;8.70;6.20;;;11.10;99.90;;;;;;4171109;28;20216;-78
2022/06/02 00:17:13;;;;;;;9.40;5.70;;;11.10;99.90;;;;;;4176796;28;20237;-79
2022/06/02 00:19:27;;;;;;;8.50;5.63;;;11.00;99.90;;;;;;4180081;28;20247;-78
2022/06/02 00:21:37;;;;;;;8.47;4.97;;;11.00;99.90;;;;;;4172218;28;20210;-78
2022/06/02 00:23:49;;;;;;;8.50;5.10;;;10.90;99.90;;;;;;4158941;28;20214;-79
2022/06/02 00:25:56;;;;;;;5.00;4.50;;;10.70;99.90;;;;;;4162158;28;20283;-78
2022/06/02 00:28:05;;;;;;;5.10;4.60;;;10.90;99.90;;;;;;4161379;28;20284;-79
2022/06/02 00:30:14;;;;;;;7.60;5.00;;;10.80;99.90;;;;;;4166127;28;20215;-79
2022/06/02 00:32:22;;;;;;;7.80;4.57;;;10.80;99.90;;;;;;4180804;28;20210;-79
2022/06/02 00:34:32;;;;;;;7.43;5.03;;;10.70;99.90;;;;;;4179116;28;20208;-79
2022/06/02 00:36:41;;;;;;;6.10;5.00;;;10.70;99.90;;;;;;4175108;28;20217;-79
2022/06/02 00:38:43;;;;;;;6.40;4.90;;;10.70;99.90;;;;;;4175042;28;20277;-78
2022/06/02 00:40:46;;;;;;;7.80;5.10;;;10.70;99.90;;;;;;4174847;28;20215;-78
2022/06/02 00:43:05;;;;;;;7.70;5.07;;;10.60;99.90;;;;;;4173106;28;20213;-79
2022/06/02 00:45:10;;;;;;;6.13;4.77;;;10.60;99.90;;;;;;4174858;28;20219;-78
2022/06/02 00:47:30;;;;;;;6.90;4.97;;;10.60;99.90;;;;;;4170599;28;20258;-78
2022/06/02 01:38:23;;;;;;;6.17;5.03;;;9.90;99.90;;;;;;4173012;28;20683;-79
2022/06/02 01:40:34;;;;;;;6.70;5.30;;;9.90;99.90;;;;;;4180498;28;20287;-78
2022/06/02 01:42:48;;;;;;;6.80;5.20;;;9.90;99.90;;;;;;4165819;28;20215;-79
2022/06/02 01:44:58;;;;;;;6.90;5.67;;;10.10;99.90;;;;;;4178480;28;20883;-79
2022/06/02 01:47:07;;;;;;;6.30;5.43;;;9.90;99.90;;;;;;4168594;28;20249;-78
2022/06/02 01:49:21;;;;;;;6.80;5.40;;;9.90;99.90;;;;;;4179562;28;20687;-79
2022/06/02 01:51:34;;;;;;;7.33;5.60;;;10.70;99.90;;;;;;4176155;28;20262;-79
2022/06/02 01:53:51;;;;;;;7.00;5.00;;;9.80;99.90;;;;;;4180726;28;20206;-78
2022/06/02 01:56:22;;;;;;;6.67;5.47;;;9.80;99.90;;;;;;4172132;28;20211;-78
2022/06/02 01:58:36;;;;;;;7.03;5.63;;;9.90;99.90;;;;;;4179395;28;20254;-78
2022/06/02 02:00:38;;;;;;;7.77;6.30;;;9.70;99.90;;;;;;4168953;28;20219;-79
2022/06/02 02:03:00;;;;;;;7.20;5.80;;;9.70;99.90;;;;;;4165471;28;20219;-79
2022/06/02 02:05:18;;;;;;;8.70;5.50;;;9.70;99.90;;;;;;4168381;28;20734;-78
2022/06/02 02:07:29;;;;;;;6.80;5.67;;;9.60;99.90;;;;;;4182418;28;20234;-78
2022/06/02 02:09:42;;;;;;;7.83;6.37;;;9.60;99.90;;;;;;4173667;28;20314;-79
2022/06/02 02:11:49;;;;;;;8.90;6.73;;;10.00;99.90;;;;;;4174861;28;20217;-78
2022/06/02 02:14:05;;;;;;;10.17;6.67;;;9.50;99.90;;;;;;4161124;28;20247;-79
2022/06/02 02:16:20;;;;;;;8.73;7.07;;;9.50;99.90;;;;;;4179275;28;20206;-78
2022/06/02 02:18:35;;;;;;;9.53;6.70;;;9.50;99.90;;;;;;4159773;28;20243;-78
2022/06/02 02:20:47;;;;;;;7.90;6.23;;;9.70;99.90;;;;;;4159976;28;20219;-78
2022/06/02 02:22:55;;;;;;;8.50;6.10;;;9.40;99.90;;;;;;4172831;28;20221;-79
2022/06/02 02:25:10;;;;;;;9.83;7.13;;;9.40;99.90;;;;;;4156698;28;20758;-78
2022/06/02 02:27:19;;;;;;;8.23;6.63;;;9.40;99.90;;;;;;4173599;28;20309;-78
2022/06/02 02:29:27;;;;;;;12.00;6.80;;;9.40;99.90;;;;;;4167952;28;20226;-79
2022/06/02 02:31:41;;;;;;;9.27;7.10;;;9.30;99.90;;;;;;4179415;28;20209;-79
2022/06/02 02:33:54;;;;;;;11.30;7.10;;;9.30;99.90;;;;;;4167250;28;20219;-79
2022/06/02 02:36:03;;;;;;;8.97;6.77;;;9.30;99.90;;;;;;4169614;28;20656;-78
2022/06/02 02:38:10;;;;;;;9.73;7.37;;;9.30;99.90;;;;;;4176086;28;20223;-78
2022/06/02 02:40:19;;;;;;;9.07;7.40;;;9.50;99.90;;;;;;4155980;28;20234;-78
2022/06/02 02:42:27;;;;;;;9.40;7.30;;;9.20;99.90;;;;;;4162339;28;20214;-78
2022/06/02 02:44:36;;;;;;;12.07;8.20;;;9.20;99.90;;;;;;4174175;28;20769;-78
2022/06/02 02:46:49;;;;;;;9.97;7.43;;;9.50;99.90;;;;;;4157284;28;20301;-78
2022/06/02 02:48:59;;;;;;;10.97;7.30;;;9.10;99.90;;;;;;4176690;28;20588;-78
2022/06/02 02:51:08;;;;;;;10.63;7.50;;;9.10;99.90;;;;;;4172766;28;20667;-78
2022/06/02 02:53:16;;;;;;;10.70;7.70;;;9.20;99.90;;;;;;4175179;28;20289;-79
2022/06/02 02:55:21;;;;;;;10.70;8.13;;;9.10;99.90;;;;;;4177743;28;20198;-78
2022/06/02 02:57:31;;;;;;;12.10;9.07;;;9.10;99.90;;;;;;4165560;28;20241;-78
2022/06/02 02:59:41;;;;;;;10.60;8.63;;;9.00;99.90;;;;;;4173959;28;20227;-78
2022/06/02 03:01:48;;;;;;;11.47;8.47;;;9.90;99.90;;;;;;4158313;28;20465;-79
2022/06/02 03:04:02;;;;;;;10.70;8.37;;;9.00;99.90;;;;;;4162818;28;20451;-78
2022/06/02 03:06:20;;;;;;;10.70;8.23;;;9.00;99.90;;;;;;4171615;28;20247;-78
2022/06/02 03:08:35;;;;;;;11.13;7.90;;;9.00;99.90;;;;;;4174313;28;20496;-78
2022/06/02 03:10:40;;;;;;;10.83;8.47;;;8.90;99.90;;;;;;4177439;28;20210;-78
2022/06/02 03:13:03;;;;;;;10.67;8.37;;;9.00;99.90;;;;;;4177325;28;20903;-78
2022/06/02 03:15:15;;;;;;;14.67;9.00;;;8.90;99.90;;;;;;4175589;28;20437;-78
2022/06/02 03:17:26;;;;;;;12.83;8.70;;;8.90;99.90;;;;;;4174457;28;20194;-78
2022/06/02 03:19:37;;;;;;;12.70;8.80;;;9.40;99.90;;;;;;4177994;28;20605;-78
2022/06/02 03:21:51;;;;;;;13.23;8.60;;;8.90;99.90;;;;;;4172526;28;21028;-78
2022/06/02 03:24:29;;;;;;;11.10;8.40;;;8.90;99.90;;;;;;4170126;28;20576;-78
2022/06/02 03:26:44;;;;;;;12.50;8.97;;;8.80;99.90;;;;;;4170292;28;20199;-78
2022/06/02 03:28:57;;;;;;;13.20;8.37;;;8.90;99.90;;;;;;4153750;28;20485;-78
2022/06/02 03:31:07;;;;;;;12.87;8.57;;;8.70;99.90;;;;;;4170995;28;20456;-78
2022/06/02 03:33:21;;;;;;;11.60;8.97;;;8.80;99.90;;;;;;4154445;28;20754;-78
2022/06/02 03:35:34;;;;;;;11.93;8.83;;;8.80;99.90;;;;;;4180932;28;20535;-78
2022/06/02 03:37:51;;;;;;;11.00;7.90;;;8.80;99.90;;;;;;4174347;28;20271;-78
2022/06/02 03:40:19;;;;;;;12.13;8.70;;;9.40;99.90;;;;;;4181777;28;20444;-78
2022/06/02 03:42:36;;;;;;;13.70;8.63;;;8.80;99.90;;;;;;4183701;28;20203;-78
2022/06/02 03:44:48;;;;;;;10.57;8.10;;;8.70;99.90;;;;;;4175382;28;20485;-78
2022/06/02 03:47:13;;;;;;;12.40;8.57;;;8.70;99.90;;;;;;4166830;28;20536;-78
2022/06/02 03:49:38;;;;;;;13.63;9.13;;;8.70;99.90;;;;;;4178134;28;20252;-78
2022/06/02 03:51:58;;;;;;;13.70;8.70;;;8.70;99.90;;;;;;4181239;28;20549;-78
2022/06/02 03:54:39;;;;;;;11.83;9.03;;;8.70;99.90;;;;;;4176651;28;20442;-78
2022/06/02 03:57:00;;;;;;;13.80;9.57;;;8.70;99.90;;;;;;4168203;28;20490;-78
2022/06/02 03:59:16;;;;;;;13.50;8.40;;;8.70;99.90;;;;;;4165720;28;20478;-78
2022/06/02 04:01:21;;;;;;;12.17;9.17;;;8.70;99.90;;;;;;4174494;28;20456;-79
2022/06/02 04:03:37;;;;;;;12.90;9.07;;;8.70;99.90;;;;;;4155473;28;20465;-79
2022/06/02 04:05:57;;;;;;;13.83;9.57;;;8.70;99.90;;;;;;4157151;28;20239;-79
2022/06/02 04:08:17;;;;;;;13.27;9.33;;;8.70;99.90;;;;;;4176354;28;20229;-79
2022/06/02 04:10:30;;;;;;;14.67;9.53;;;8.70;99.90;;;;;;4151591;28;20454;-79
2022/06/02 04:15:32;;;;;;;16.07;9.80;;;8.70;99.90;;;;;;4164082;28;20354;-79
2022/06/02 04:17:45;;;;;;;13.53;9.83;;;8.70;99.90;;;;;;4156597;28;20468;-79
2022/06/02 04:22:38;;;;;;;15.67;11.27;;;8.70;99.90;;;;;;4177850;28;21017;-79
2022/06/02 04:24:56;;;;;;;17.00;11.67;;;8.80;99.90;;;;;;4157571;28;20221;-79
2022/06/02 04:27:09;;;;;;;15.47;10.90;;;8.80;99.90;;;;;;4176134;28;20445;-78
2022/06/02 04:29:27;;;;;;;16.90;11.47;;;8.80;99.90;;;;;;4171914;28;20503;-79
2022/06/02 04:31:43;;;;;;;18.27;12.03;;;8.80;99.90;;;;;;4172618;28;20284;-79
2022/06/02 04:33:52;;;;;;;19.67;13.47;;;8.80;99.90;;;;;;4173428;28;20457;-78
2022/06/02 04:36:04;;;;;;;18.87;12.80;;;8.80;99.90;;;;;;4175610;28;20453;-79
2022/06/02 04:38:16;;;;;;;16.87;11.80;;;8.80;99.90;;;;;;4177111;28;20231;-78
2022/06/02 04:40:28;;;;;;;18.20;13.17;;;8.80;99.90;;;;;;4176750;28;20437;-78
2022/06/02 04:42:38;;;;;;;20.67;12.93;;;8.90;99.90;;;;;;4182631;28;20893;-78
2022/06/02 04:44:48;;;;;;;17.47;12.37;;;8.90;99.90;;;;;;4157356;28;20553;-78
2022/06/02 04:47:00;;;;;;;17.47;12.23;;;8.90;99.90;;;;;;4175702;28;20540;-78
2022/06/02 04:49:09;;;;;;;17.50;12.47;;;9.00;99.90;;;;;;4172843;28;20467;-79
2022/06/02 04:51:21;;;;;;;17.63;12.07;;;8.90;99.90;;;;;;4175748;28;20206;-79
2022/06/02 04:53:30;;;;;;;19.23;12.27;;;8.90;99.90;;;;;;4176984;28;20511;-78
2022/06/02 04:55:41;;;;;;;15.10;11.17;;;9.00;99.90;;;;;;4172724;28;20449;-78
2022/06/02 04:57:50;;;;;;;20.13;12.20;;;9.00;99.90;;;;;;4176253;28;20290;-80
2022/06/02 05:00:00;;;;;;;16.60;11.93;;;9.00;99.90;;;;;;4170457;28;20206;-79
2022/06/02 05:02:12;;;;;;;17.60;12.30;;;9.10;99.90;;;;;;4157293;28;20471;-79
2022/06/02 05:04:25;;;;;;;15.73;11.57;;;9.10;99.90;;;;;;4170146;28;20199;-79
2022/06/02 05:06:37;;;;;;;18.67;11.90;;;9.10;99.90;;;;;;4175385;28;20488;-79
2022/06/02 05:08:52;;;;;;;17.90;11.47;;;9.20;99.90;;;;;;4177127;28;20691;-79
2022/06/02 05:11:04;;;;;;;15.80;11.23;;;9.20;99.90;;;;;;4161872;28;20239;-79
2022/06/02 05:13:15;;;;;;;17.10;12.27;;;9.20;99.90;;;;;;4174129;28;20259;-78
2022/06/02 05:15:31;;;;;;;16.77;11.57;;;9.20;99.90;;;;;;4159543;28;20237;-77
2022/06/02 05:18:06;;;;;;;17.27;11.63;;;9.30;99.90;;;;;;4173451;28;20264;-77
2022/06/02 05:20:21;;;;;;;15.73;11.50;;;9.30;99.90;;;;;;4170469;28;20224;-77
2022/06/02 05:22:54;;;;;;;16.30;11.97;;;9.40;99.90;;;;;;4156637;28;20223;-77
2022/06/02 05:25:30;;;;;;;15.97;11.27;;;9.40;99.90;;;;;;4154321;28;20208;-77
2022/06/02 05:27:59;;;;;;;15.77;11.53;;;9.50;99.90;;;;;;4171102;28;20199;-77
2022/06/02 05:30:16;;;;;;;20.60;11.90;;;9.50;99.90;;;;;;4158780;28;20230;-78
2022/06/02 05:32:47;;;;;;;17.63;11.80;;;9.60;99.90;;;;;;4167638;28;20207;-77
2022/06/02 05:35:08;;;;;;;18.13;11.93;;;9.60;99.90;;;;;;4166989;28;20207;-77
2022/06/02 05:37:21;;;;;;;22.20;13.30;;;9.70;99.90;;;;;;4165220;28;20269;-77
2022/06/02 05:39:51;;;;;;;17.57;11.87;;;9.80;99.90;;;;;;4165125;28;20234;-77
2022/06/02 05:42:11;;;;;;;16.00;11.07;;;9.80;99.90;;;;;;4150374;28;20215;-78
2022/06/02 05:44:25;;;;;;;18.90;11.63;;;9.80;99.90;;;;;;4182341;28;20285;-78
2022/06/02 05:46:41;;;;;;;17.67;11.33;;;9.90;99.90;;;;;;4180109;28;20265;-78
2022/06/02 05:48:59;;;;;;;15.80;11.70;;;9.90;99.90;;;;;;4166601;28;20239;-78
2022/06/02 05:51:08;;;;;;;15.13;10.40;;;10.00;99.90;;;;;;4159398;28;20219;-78
2022/06/02 05:53:23;;;;;;;15.97;9.97;;;10.00;99.90;;;;;;4167715;28;20255;-78
2022/06/02 05:55:33;;;;;;;15.70;10.40;;;10.10;99.90;;;;;;4171217;28;20238;-78
2022/06/02 05:57:38;;;;;;;13.57;9.43;;;10.10;99.90;;;;;;4168678;28;20219;-78
2022/06/02 06:00:03;;;;;;;13.30;10.07;;;10.30;99.90;;;;;;4170857;28;20206;-78
2022/06/02 06:02:36;;;;;;;12.50;9.50;;;10.20;99.90;;;;;;4163400;28;20207;-78
2022/06/02 06:05:03;;;;;;;13.43;9.27;;;10.20;99.90;;;;;;4167647;28;20759;-77
2022/06/02 06:07:14;;;;;;;11.83;9.53;;;10.30;99.90;;;;;;4150065;28;20266;-79
2022/06/02 06:09:26;;;;;;;12.10;9.07;;;10.30;99.90;;;;;;4172504;28;20307;-79
2022/06/02 06:11:39;;;;;;;12.47;8.77;;;10.40;99.90;;;;;;4175777;28;20203;-78
2022/06/02 06:14:03;;;;;;;12.70;9.40;;;10.40;99.90;;;;;;4177471;28;20396;-79
2022/06/02 06:16:14;;;;;;;10.73;7.97;;;10.50;99.90;;;;;;4176212;28;20195;-76
2022/06/02 06:18:32;;;;;;;10.20;7.53;;;10.50;99.90;;;;;;4186256;22;20253;-88
2022/06/02 06:20:51;;;;;;;8.83;6.90;;;10.60;99.90;;;;;;4143371;28;20345;-87
2022/06/02 06:23:17;;;;;;;11.73;7.80;;;10.60;99.90;;;;;;4158154;28;20206;-88
2022/06/02 06:25:38;;;;;;;11.03;6.90;;;10.70;99.90;;;;;;4144273;28;20238;-88
2022/06/02 06:27:53;;;;;;;10.37;7.63;;;10.70;99.90;;;;;;4145968;28;20304;-88
2022/06/02 06:30:04;;;;;;;10.47;6.97;;;10.80;99.90;;;;;;4143961;28;20851;-88
2022/06/02 06:32:19;;;;;;;10.57;7.20;;;10.80;99.90;;;;;;4128781;28;20240;-87
2022/06/02 06:34:33;;;;;;;9.70;6.73;;;10.90;99.90;;;;;;4144093;28;20212;-88
2022/06/02 06:36:56;;;;;;;8.20;5.50;;;10.90;99.90;;;;;;4129792;28;20599;-88
2022/06/02 06:39:05;;;;;;;9.63;6.60;;;11.00;99.90;;;;;;4147267;28;20260;-87
2022/06/02 06:41:23;;;;;;;14.73;6.83;;;11.40;99.90;;;;;;4125665;28;20206;-88
2022/06/02 06:43:42;;;;;;;11.53;7.50;;;11.10;99.90;;;;;;4129532;28;20706;-88
2022/06/02 06:45:56;;;;;;;9.27;6.83;;;11.70;99.90;;;;;;4147657;28;20213;-88
2022/06/02 06:48:02;;;;;;;12.87;6.93;;;11.20;99.90;;;;;;4146178;28;20209;-88
2022/06/02 06:50:10;;;;;;;8.90;7.07;;;11.30;99.90;;;;;;4126861;28;20210;-88
2022/06/02 06:52:26;;;;;;;10.03;6.17;;;11.20;99.90;;;;;;4129836;28;20687;-88
2022/06/02 06:54:39;;;;;;;9.27;6.63;;;11.20;99.90;;;;;;4129767;28;20241;-88
2022/06/02 06:56:49;;;;;;;9.03;6.30;;;11.50;99.90;;;;;;4129227;28;20220;-88
2022/06/02 06:59:03;;;;;;;8.43;6.50;;;11.40;99.90;;;;;;4129230;28;20241;-88
2022/06/02 07:01:09;;;;;;;10.03;6.60;;;11.40;99.90;;;;;;4142127;28;20208;-88
2022/06/02 07:03:20;;;;;;;8.67;6.10;;;11.50;99.90;;;;;;4147165;28;20198;-87
2022/06/02 07:05:29;;;;;;;9.63;5.53;;;11.60;99.90;;;;;;4144362;28;20253;-88
2022/06/02 07:07:40;;;;;;;7.90;5.53;;;11.60;99.90;;;;;;4128823;28;20664;-88
2022/06/02 07:09:51;;;;;;;9.50;6.07;;;11.70;99.90;;;;;;4129469;28;20942;-87
2022/06/02 07:14:23;;;;;;;8.73;5.23;;;11.70;99.90;;;;;;4129999;28;20208;-88
2022/06/02 07:16:31;;;;;;;8.33;5.60;;;11.80;99.90;;;;;;4150782;28;20214;-88
2022/06/02 07:18:44;;;;;;;8.80;5.40;;;11.80;99.90;;;;;;4124165;28;20280;-88
2022/06/02 07:20:54;;;;;;;6.63;4.53;;;11.90;99.90;;;;;;4146699;28;20218;-88
2022/06/02 07:23:06;;;;;;;7.53;5.00;;;12.00;99.90;;;;;;4131052;28;20734;-88
2022/06/02 07:25:17;;;;;;;8.13;5.40;;;12.10;99.90;;;;;;4133519;28;20211;-88
2022/06/02 07:27:26;;;;;;;7.00;5.13;;;12.10;99.90;;;;;;4129572;28;20322;-87
2022/06/02 07:29:39;;;;;;;6.37;5.03;;;12.20;99.90;;;;;;4126922;28;20266;-87
2022/06/02 07:32:05;;;;;;;7.90;5.73;;;12.30;99.90;;;;;;4123215;28;20723;-88
2022/06/02 07:34:31;;;;;;;9.33;4.60;;;12.40;99.90;;;;;;4148870;28;20657;-88
2022/06/02 07:36:52;;;;;;;5.80;4.63;;;12.50;99.90;;;;;;4132998;28;20243;-88
2022/06/02 07:39:13;;;;;;;6.43;4.30;;;12.50;99.90;;;;;;4149063;28;20227;-87
2022/06/02 07:41:28;;;;;;;7.10;4.63;;;12.50;99.90;;;;;;4119865;28;20222;-89
2022/06/02 07:44:02;;;;;;;6.63;4.37;;;12.70;99.90;;;;;;4146051;28;20242;-89
2022/06/02 07:46:21;;;;;;;7.33;4.60;;;12.70;99.90;;;;;;4129864;28;20211;-89
2022/06/02 07:48:52;;;;;;;6.13;4.10;;;12.90;99.90;;;;;;4127501;28;20236;-90
2022/06/02 07:51:06;;;;;;;5.97;3.90;;;12.90;99.90;;;;;;4148850;28;20199;-89
2022/06/02 07:53:12;;;;;;;6.93;4.17;;;12.90;99.90;;;;;;4141346;28;20246;-89
2022/06/02 07:55:23;;;;;;;6.23;4.30;;;12.90;99.90;;;;;;4129523;28;20208;-89
2022/06/02 07:57:38;;;;;;;4.93;3.83;;;12.90;99.90;;;;;;4131755;28;20219;-89
2022/06/02 07:59:59;;;;;;;4.33;3.10;;;13.10;99.90;;;;;;4130774;28;20240;-89
2022/06/02 08:02:23;;;;;;;8.20;4.90;;;13.20;99.90;;;;;;4132306;28;20224;-89
2022/06/02 08:04:31;;;;;;;9.57;5.10;;;13.30;99.90;;;;;;4141323;28;20217;-89
2022/06/02 08:06:42;;;;;;;8.83;4.40;;;13.40;99.90;;;;;;4151646;28;20228;-89
2022/06/02 08:08:54;;;;;;;7.57;3.47;;;13.50;99.90;;;;;;4148236;28;20226;-89
2022/06/02 08:11:20;;;;;;;3.83;2.93;;;13.50;99.90;;;;;;4150132;28;20655;-89
2022/06/02 08:13:33;;;;;;;5.73;2.93;;;13.50;99.90;;;;;;4127719;28;20213;-89
2022/06/02 08:15:42;;;;;;;4.43;2.77;;;13.50;99.90;;;;;;4145576;28;20207;-88
2022/06/02 08:17:51;;;;;;;2.90;2.60;;;13.60;99.90;;;;;;4149196;28;20211;-89
2022/06/02 08:20:07;;;;;;;4.50;2.93;;;13.60;99.90;;;;;;4128729;28;20251;-89
2022/06/02 08:22:15;;;;;;;4.40;3.27;;;13.60;99.90;;;;;;4149604;28;20220;-89
2022/06/02 08:24:41;;;;;;;4.43;3.40;;;13.80;99.90;;;;;;4129014;28;20213;-89
2022/06/02 08:26:52;;;;;;;4.13;3.00;;;13.90;99.90;;;;;;4147373;28;20704;-89
2022/06/02 08:29:11;;;;;;;3.67;2.77;;;14.10;99.90;;;;;;4128466;28;20232;-89
2022/06/02 08:31:34;;;;;;;3.70;3.00;;;14.00;99.90;;;;;;4130547;28;20712;-88
2022/06/02 08:33:49;;;;;;;4.30;3.00;;;14.10;99.90;;;;;;4128692;28;20617;-89
2022/06/02 08:35:58;;;;;;;5.73;3.70;;;14.00;99.90;;;;;;4148972;28;20219;-89
2022/06/02 08:38:17;;;;;;;5.37;3.60;;;14.00;99.90;;;;;;4129316;28;20681;-89
2022/06/02 08:40:58;;;;;;;4.37;2.90;;;14.10;99.90;;;;;;4147213;28;20296;-89
2022/06/02 08:43:34;;;;;;;3.50;2.57;;;14.20;99.90;;;;;;4116835;28;20308;-89
2022/06/02 08:45:50;;;;;;;12.53;5.43;;;14.40;99.90;;;;;;4149078;28;20217;-89
2022/06/02 08:48:35;;;;;;;11.63;4.47;;;14.50;99.90;;;;;;4148243;28;20234;-89
2022/06/02 08:51:01;;;;;;;5.37;3.33;;;14.60;99.90;;;;;;4127518;28;20567;-87
2022/06/02 08:54:00;;;;;;;5.93;3.40;;;14.60;99.90;;;;;;4149259;28;20745;-88
2022/06/02 08:56:32;;;;;;;4.40;2.80;;;14.60;99.90;;;;;;4133432;28;20217;-85
2022/06/02 08:59:29;;;;;;;4.30;2.90;;;14.70;99.90;;;;;;4149900;28;20243;-85
2022/06/02 09:01:46;;;;;;;4.13;2.90;;;14.80;99.90;;;;;;4158617;28;20215;-85
2022/06/02 09:04:28;;;;;;;3.23;2.93;;;14.90;99.90;;;;;;4144233;28;20484;-88
2022/06/02 09:06:56;;;;;;;3.87;3.13;;;15.00;99.90;;;;;;4158314;28;20221;-87
2022/06/02 09:09:29;;;;;;;4.43;2.60;;;15.10;99.90;;;;;;4147835;28;20218;-87
2022/06/02 09:11:42;;;;;;;5.37;3.37;;;15.10;99.90;;;;;;4120384;28;20225;-87
2022/06/02 09:14:14;;;;;;;6.67;3.57;;;15.10;99.90;;;;;;4147448;28;20229;-88
2022/06/02 09:16:22;;;;;;;3.80;3.00;;;15.10;99.90;;;;;;4119017;28;20223;-87
2022/06/02 09:18:55;;;;;;;3.63;2.97;;;15.20;99.90;;;;;;4129591;28;20254;-87
2022/06/02 09:21:07;;;;;;;5.67;3.13;;;15.10;99.90;;;;;;4148200;28;20210;-87
2022/06/02 09:23:54;;;;;;;4.60;3.13;;;15.30;99.90;;;;;;4146179;28;20220;-87
2022/06/02 09:26:15;;;;;;;5.93;2.80;;;15.40;99.90;;;;;;4136514;28;20572;-87
2022/06/02 09:28:43;;;;;;;5.50;2.50;;;15.50;99.10;;;;;;4146072;28;20233;-88
2022/06/02 09:30:59;;;;;;;3.43;2.20;;;15.50;98.70;;;;;;4131391;28;20247;-87
2022/06/02 09:33:35;;;;;;;3.97;2.00;;;15.60;96.90;;;;;;4128515;28;20392;-88
2022/06/02 09:35:43;;;;;;;2.60;1.93;;;15.60;94.70;;;;;;4146870;28;20577;-87
2022/06/02 09:38:10;;;;;;;3.07;2.30;;;15.50;95.00;;;;;;4146948;28;20203;-87
2022/06/02 09:40:37;;;;;;;2.83;2.33;;;15.50;96.00;;;;;;4121282;28;20666;-87
2022/06/02 09:43:00;;;;;;;2.27;2.00;;;15.70;97.50;;;;;;4123325;28;20211;-87
2022/06/02 09:45:17;;;;;;;5.03;2.37;;;15.70;96.60;;;;;;4145763;28;20207;-87
2022/06/02 09:47:49;;;;;;;3.70;2.80;;;15.90;96.40;;;;;;4128079;28;20701;-87
2022/06/02 09:50:21;;;;;;;4.00;2.50;;;16.00;95.50;;;;;;4128824;28;20299;-87
2022/06/02 09:52:39;;;;;;;3.10;2.80;;;16.10;95.10;;;;;;4145957;28;20244;-87
2022/06/02 09:55:00;;;;;;;4.63;2.70;;;16.10;93.90;;;;;;4144063;28;20207;-87
2022/06/02 09:59:47;;;;;;;2.67;2.00;;;16.10;89.70;;;;;;4137775;28;20665;-87
2022/06/02 10:02:01;;;;;;;5.07;2.10;;;16.20;89.10;;;;;;4147802;28;20217;-87
2022/06/02 10:04:41;;;;;;;4.33;2.30;;;16.30;90.00;;;;;;4147363;28;20231;-88
2022/06/02 10:07:13;;;;;;;2.30;2.10;;;16.40;83.30;;;;;;4130619;28;20222;-87
2022/06/02 10:09:25;;;;;;;4.30;2.67;;;16.60;86.80;;;;;;4107421;28;20228;-87
2022/06/02 10:11:35;;;;;;;3.53;2.20;;;16.70;85.80;;;;;;4130569;28;20236;-87
2022/06/02 10:14:01;;;;;;;2.20;1.73;;;16.60;88.90;;;;;;4128631;28;20295;-87
2022/06/02 10:18:58;;;;;;;3.57;2.00;;;16.90;86.80;;;;;;4240807;27;20602;-87
2022/06/02 10:21:10;;;;;;;3.13;2.20;;;16.90;81.30;;;;;;4230852;27;20462;-87
2022/06/02 10:23:33;;;;;;;2.50;2.10;;;16.90;82.00;;;;;;4233608;28;20204;-87
2022/06/02 10:25:57;;;;;;;3.23;2.03;;;17.00;78.60;;;;;;4235944;27;20199;-87
2022/06/02 10:28:41;;;;;;;2.30;1.93;;;17.10;77.80;;;;;;4243442;28;20204;-87
2022/06/02 10:31:31;;;;;;;2.97;2.20;;;17.20;74.00;;;;;;4197580;22;20785;-78
2022/06/02 10:33:52;;;;;;;1.70;1.53;;;17.40;77.40;;;;;;4164383;28;20199;-78
2022/06/02 10:36:24;;;;;;;2.17;1.47;;;17.50;75.30;;;;;;4174844;28;20218;-78
2022/06/02 10:38:29;;;;;;;3.80;1.60;;;17.70;77.00;;;;;;4164887;28;20232;-78
2022/06/02 10:40:48;;;;;;;1.77;1.57;;;17.70;66.60;;;;;;4171551;28;20253;-78
2022/06/02 10:43:26;;;;;;;1.50;1.10;;;18.00;64.00;;;;;;4169512;28;20286;-78
2022/06/02 10:46:06;;;;;;;3.17;2.30;;;18.20;62.10;;;;;;4170400;28;20676;-78
2022/06/02 10:48:48;;;;;;;7.20;2.60;;;18.40;61.70;;;;;;4123901;28;20224;-78
2022/06/02 10:51:20;;;;;;;3.00;1.93;;;18.50;58.90;;;;;;4170730;28;20221;-76
2022/06/02 10:54:08;;;;;;;3.17;2.03;;;18.60;57.90;;;;;;4170698;28;20216;-79
2022/06/02 10:56:48;;;;;;;3.20;1.90;;;18.70;55.70;;;;;;4158460;28;20221;-79
2022/06/02 10:59:34;;;;;;;1.93;1.70;;;18.60;54.80;;;;;;4169446;28;20210;-79
2022/06/02 11:02:05;;;;;;;1.37;1.23;;;18.60;56.50;;;;;;4171312;28;20217;-79
2022/06/02 11:04:52;;;;;;;1.47;1.20;;;18.70;56.00;;;;;;4190415;28;20217;-79
2022/06/02 11:07:32;;;;;;;1.93;1.50;;;18.80;55.50;;;;;;4164053;28;20212;-77
2022/06/02 11:10:16;;;;;;;2.90;1.70;;;19.00;54.60;;;;;;4168051;28;20316;-79
2022/06/02 11:12:51;;;;;;;1.93;1.40;;;19.20;51.70;;;;;;4171645;28;20223;-79
2022/06/02 11:15:25;;;;;;;1.67;1.20;;;19.50;51.90;;;;;;4142498;28;20230;-77
2022/06/02 11:17:56;;;;;;;2.37;1.27;;;19.70;52.20;;;;;;4169098;28;20221;-77
2022/06/02 11:20:33;;;;;;;4.67;1.37;;;19.90;51.30;;;;;;4161446;28;20707;-79
2022/06/02 11:23:09;;;;;;;1.83;1.27;;;19.90;48.50;;;;;;4171200;28;20663;-80
2022/06/02 11:25:40;;;;;;;2.87;1.30;;;19.90;49.60;;;;;;4176475;28;20268;-79
2022/06/02 11:28:00;;;;;;;1.97;1.40;;;19.80;48.20;;;;;;4162375;28;20212;-79
2022/06/02 11:30:34;;;;;;;3.67;2.00;;;19.70;49.50;;;;;;4162259;28;20245;-80
2022/06/02 11:32:51;;;;;;;2.70;1.60;;;19.90;50.90;;;;;;4163626;28;20218;-79
2022/06/02 11:35:21;;;;;;;3.57;1.57;;;19.90;48.50;;;;;;4163241;28;20207;-79
2022/06/02 11:37:46;;;;;;;2.57;1.30;;;19.90;48.20;;;;;;4165091;28;20223;-79
2022/06/02 11:40:27;;;;;;;1.30;1.20;;;19.90;48.00;;;;;;4160193;28;20239;-80
2022/06/02 11:42:51;;;;;;;3.77;1.60;;;19.90;48.20;;;;;;4158659;28;20251;-80
2022/06/02 11:45:04;;;;;;;1.57;1.20;;;19.70;47.50;;;;;;4163745;28;20626;-79
2022/06/02 11:47:40;;;;;;;1.20;1.07;;;20.10;48.50;;;;;;4159444;28;20227;-79
2022/06/02 11:50:21;;;;;;;1.43;1.10;;;21.10;47.30;;;;;;4150868;28;20597;-79
2022/06/02 11:52:52;;;;;;;2.70;1.20;;;22.30;44.70;;;;;;4161472;28;20217;-79
2022/06/02 11:55:17;;;;;;;2.23;1.10;;;23.50;42.40;;;;;;4167793;28;20213;-79
2022/06/02 11:57:37;;;;;;;2.10;1.67;;;23.80;40.30;;;;;;4173587;28;20224;-79
2022/06/02 12:00:30;;;;;;;2.17;1.33;;;23.50;39.70;;;;;;4169124;28;20235;-79
2022/06/02 12:03:13;;;;;;;1.73;1.30;;;23.50;40.30;;;;;;4129852;28;20221;-80
2022/06/02 12:05:44;;;;;;;3.17;1.10;;;24.30;38.70;;;;;;4154555;28;20230;-80
2022/06/02 12:08:23;;;;;;;1.97;1.10;;;25.40;36.20;;;;;;4168015;28;20214;-80
2022/06/02 12:10:47;;;;;;;1.10;1.00;;;26.20;36.10;;;;;;4165809;28;20235;-80
2022/06/02 12:13:09;;;;;;;1.87;0.90;;;26.10;32.10;;;;;;4164819;28;20235;-79
2022/06/02 12:15:34;;;;;;;0.97;0.87;;;25.80;33.20;;;;;;4160128;28;20211;-80
2022/06/02 12:17:59;;;;;;;1.73;1.10;;;26.30;34.30;;;;;;4159939;28;20223;-80
2022/06/02 12:20:33;;;;;;;4.53;1.23;;;27.20;33.40;;;;;;4159114;28;20224;-80
2022/06/02 12:23:05;;;;;;;1.70;0.93;;;27.60;32.30;;;;;;4168348;28;20203;-80
2022/06/02 12:25:34;;;;;;;1.80;0.90;;;27.70;32.10;;;;;;4157082;28;20235;-80
2022/06/02 12:28:02;;;;;;;2.00;0.77;;;28.50;32.10;;;;;;4165651;28;20265;-80
2022/06/02 12:30:19;;;;;;;5.75;0.95;;;29.50;30.70;;;;;;4158378;28;20277;-80
2022/06/02 12:32:50;;;;;;;1.40;0.98;;;29.70;29.60;;;;;;4170655;28;20214;-79
2022/06/02 12:35:17;;;;;;;1.50;0.90;;;29.20;29.20;;;;;;4150888;28;20207;-79
2022/06/02 12:37:38;;;;;;;1.98;1.13;;;28.30;29.80;;;;;;4150768;28;20629;-79
2022/06/02 12:40:04;;;;;;;1.13;0.95;;;27.60;30.20;;;;;;4151075;28;20270;-79
2022/06/02 12:42:41;;;;;;;1.30;1.10;;;27.00;31.10;;;;;;4157248;28;20720;-80
2022/06/02 12:45:11;;;;;;;1.20;0.88;;;27.40;31.70;;;;;;4161117;28;20222;-80
2022/06/02 12:47:50;;;;;;;0.80;0.80;;;28.10;30.70;;;;;;4157615;28;20208;-79
2022/06/02 12:50:19;;;;;;;1.42;0.80;;;27.70;29.20;;;;;;4156660;28;20223;-80
2022/06/02 12:52:50;;;;;;;0.95;0.63;;;27.60;29.70;;;;;;4135569;28;20219;-80
2022/06/02 12:55:35;;;;;;;1.27;0.90;;;28.50;29.70;;;;;;4163661;28;20237;-80
2022/06/02 12:58:14;;;;;;;1.08;0.70;;;29.50;28.10;;;;;;4159891;28;20272;-81
2022/06/02 13:00:50;;;;;;;1.38;1.00;;;30.30;28.20;;;;;;4157174;28;20217;-81
2022/06/02 13:03:36;;;;;;;3.80;1.08;;;31.20;27.10;;;;;;4141024;28;20784;-80
2022/06/02 13:06:19;;;;;;;5.18;0.90;;;31.90;25.80;;;;;;4155595;28;20216;-81
2022/06/02 13:09:02;;;;;;;1.33;0.77;;;32.20;25.40;;;;;;4124666;28;20448;-81